Time;durP1;ratioP1;P1;durP2;ratioP2;P2;SDS_P1;SDS_P2;PMS_P1;PMS_P2;Temp;Humidity;BMP_temperature;BMP_pressure;BME280_temperature;BME280_humidity;BME280_pressure;Samples;Min_cycle;Max_cycle;Signal;HPM_P1;HPM_P2
2022/12/15 00:40:58;;;;;;;67.63;31.25;;;0.00;99.90;;;;;;5014106;28;20115;-69
2022/12/15 00:43:25;;;;;;;64.05;32.85;;;0.00;99.90;;;;;;4996602;28;20033;-69
2022/12/15 00:48:37;;;;;;;68.10;32.03;;;0.00;99.90;;;;;;4983081;28;20044;-69
2022/12/15 00:51:03;;;;;;;70.60;33.80;;;0.00;99.90;;;;;;4996282;28;20046;-69
2022/12/15 01:21:03;;;;;;;69.13;32.47;;;0.20;99.90;;;;;;5015154;28;20080;-69
2022/12/15 01:23:30;;;;;;;72.10;32.38;;;0.20;99.90;;;;;;4999860;28;20026;-69
2022/12/15 01:25:55;;;;;;;71.35;33.65;;;0.30;99.90;;;;;;4999748;28;20030;-68
2022/12/15 01:28:21;;;;;;;68.07;32.50;;;0.20;99.90;;;;;;5017768;28;20049;-68
2022/12/15 01:30:47;;;;;;;73.78;33.67;;;0.20;99.90;;;;;;5017412;28;20068;-69
2022/12/15 01:33:14;;;;;;;70.72;34.30;;;0.20;99.90;;;;;;5017731;28;20037;-68
2022/12/15 01:35:40;;;;;;;67.13;32.38;;;0.20;99.90;;;;;;5017205;28;20030;-68
2022/12/15 01:38:06;;;;;;;75.20;34.25;;;0.30;99.90;;;;;;5017070;28;20026;-68
2022/12/15 01:40:44;;;;;;;72.63;34.40;;;0.30;99.90;;;;;;4999168;28;20037;-69
2022/12/15 01:43:14;;;;;;;74.82;35.38;;;0.30;99.90;;;;;;5017259;28;20037;-68
2022/12/15 01:46:08;;;;;;;70.40;33.75;;;0.30;99.90;;;;;;5016722;28;20105;-68
2022/12/15 01:49:04;;;;;;;74.03;33.85;;;0.30;99.90;;;;;;4989510;28;20048;-68
2022/12/15 01:51:38;;;;;;;68.50;32.42;;;0.30;99.90;;;;;;5016709;28;20022;-68
2022/12/15 01:54:09;;;;;;;68.60;33.90;;;0.30;99.90;;;;;;5016879;28;20108;-69
2022/12/15 01:56:42;;;;;;;65.05;31.23;;;0.30;99.90;;;;;;4999681;28;20030;-68
2022/12/15 01:59:14;;;;;;;70.72;33.13;;;0.30;99.90;;;;;;5016835;28;20070;-69
2022/12/15 02:01:40;;;;;;;66.63;34.83;;;0.30;99.90;;;;;;5017057;28;20116;-68
2022/12/15 02:04:06;;;;;;;75.65;34.60;;;0.40;99.90;;;;;;5017797;28;20420;-69
2022/12/15 02:06:31;;;;;;;68.68;33.72;;;0.80;99.90;;;;;;5017375;28;20532;-69
2022/12/15 02:08:59;;;;;;;74.78;34.83;;;0.40;99.90;;;;;;5000978;28;20054;-69
2022/12/15 02:11:43;;;;;;;72.82;32.95;;;0.30;99.90;;;;;;5018823;28;20091;-69
2022/12/15 02:14:10;;;;;;;68.80;33.90;;;0.30;99.90;;;;;;5017028;28;20038;-69
2022/12/15 02:17:06;;;;;;;72.22;34.90;;;0.30;99.90;;;;;;5017391;28;20076;-69
2022/12/15 02:19:35;;;;;;;76.38;33.58;;;0.40;99.90;;;;;;4987792;28;20034;-69
2022/12/15 02:22:15;;;;;;;71.30;34.33;;;0.30;99.90;;;;;;5016979;28;20056;-69
2022/12/15 02:25:00;;;;;;;71.50;34.05;;;0.30;99.90;;;;;;5016324;28;20030;-69
2022/12/15 02:27:47;;;;;;;79.72;35.25;;;0.30;99.90;;;;;;5016448;28;20026;-69
2022/12/15 02:30:15;;;;;;;69.43;33.50;;;0.30;99.90;;;;;;5016718;28;20032;-69
2022/12/15 02:32:56;;;;;;;79.93;35.13;;;0.30;99.90;;;;;;5014111;28;20474;-69
2022/12/15 02:35:30;;;;;;;78.32;34.35;;;0.40;99.90;;;;;;5015146;28;20056;-69
2022/12/15 02:37:55;;;;;;;72.07;34.47;;;0.70;99.90;;;;;;5016547;28;20029;-68
2022/12/15 02:40:21;;;;;;;75.22;33.67;;;0.40;99.90;;;;;;5015818;28;20080;-72
2022/12/15 02:42:50;;;;;;;72.15;34.50;;;0.40;99.90;;;;;;5018193;28;20030;-69
2022/12/15 02:45:29;;;;;;;70.30;34.38;;;0.40;99.90;;;;;;5016969;28;20486;-69
2022/12/15 02:47:55;;;;;;;;;;;0.60;99.90;;;;;;5018008;28;20524;-69
2022/12/15 02:51:08;;;;;;;73.82;33.38;;;0.50;99.90;;;;;;5017069;28;19909;-69
2022/12/15 02:54:03;;;;;;;77.65;35.30;;;0.40;99.90;;;;;;4956161;29;20175;-69
2022/12/15 02:56:48;;;;;;;73.90;34.08;;;0.40;99.90;;;;;;4955888;29;20039;-70
2022/12/15 02:59:18;;;;;;;69.78;34.30;;;0.40;99.90;;;;;;4956229;29;20044;-69
2022/12/15 03:01:50;;;;;;;72.32;35.08;;;0.40;99.90;;;;;;4955461;29;20391;-69
2022/12/15 03:04:16;;;;;;;71.65;34.45;;;0.40;99.90;;;;;;4955421;29;20529;-69
2022/12/15 03:06:42;;;;;;;77.57;35.17;;;0.40;99.90;;;;;;4955302;29;20463;-69
2022/12/15 03:09:08;;;;;;;69.43;33.08;;;0.50;99.90;;;;;;4954937;29;20055;-68
2022/12/15 03:11:35;;;;;;;72.93;35.28;;;0.50;99.90;;;;;;4955098;29;20050;-69
2022/12/15 03:14:01;;;;;;;69.97;35.05;;;0.50;99.90;;;;;;4954956;29;20027;-68
2022/12/15 03:16:26;;;;;;;71.93;33.75;;;0.50;99.90;;;;;;4954815;29;20031;-69
2022/12/15 03:18:53;;;;;;;74.53;35.65;;;0.50;99.90;;;;;;4954654;29;20442;-69
2022/12/15 03:21:18;;;;;;;69.80;32.92;;;0.50;99.90;;;;;;4954544;29;20031;-69
2022/12/15 03:23:44;;;;;;;70.60;33.95;;;0.50;99.90;;;;;;4961821;28;20125;-68
2022/12/15 03:26:10;;;;;;;72.68;34.05;;;0.50;99.90;;;;;;5014515;28;20026;-68
2022/12/15 03:28:36;;;;;;;74.88;35.85;;;0.60;99.90;;;;;;5015155;28;20060;-69
2022/12/15 03:31:02;;;;;;;74.10;35.03;;;0.50;99.90;;;;;;5013804;28;20128;-69
2022/12/15 03:33:27;;;;;;;70.97;33.90;;;0.50;99.90;;;;;;5015262;28;20037;-69
2022/12/15 03:35:53;;;;;;;69.50;33.85;;;0.50;99.90;;;;;;5013697;28;20080;-68
2022/12/15 03:38:19;;;;;;;84.55;35.75;;;0.60;99.90;;;;;;5014939;28;20026;-69
2022/12/15 03:40:45;;;;;;;78.05;35.55;;;1.20;99.90;;;;;;5013994;28;20034;-68
2022/12/15 03:43:11;;;;;;;73.15;33.30;;;0.60;99.90;;;;;;5014773;28;20053;-69
2022/12/15 03:45:36;;;;;;;73.18;35.53;;;0.60;99.90;;;;;;5013518;28;20032;-69
2022/12/15 03:48:02;;;;;;;78.50;35.50;;;0.50;99.90;;;;;;5014487;28;20026;-68
2022/12/15 03:50:28;;;;;;;78.38;36.00;;;0.50;99.90;;;;;;5013589;28;20026;-69
2022/12/15 03:52:59;;;;;;;76.07;35.75;;;0.50;99.90;;;;;;5015235;28;20038;-70
2022/12/15 03:55:25;;;;;;;76.75;34.05;;;0.50;99.90;;;;;;5015480;28;20034;-69
2022/12/15 03:57:51;;;;;;;76.28;36.15;;;0.50;99.90;;;;;;5015193;28;20454;-69
2022/12/15 04:00:19;;;;;;;80.20;36.95;;;0.50;99.90;;;;;;5014964;28;20034;-69
2022/12/15 04:02:46;;;;;;;78.40;35.58;;;0.50;99.90;;;;;;5014584;28;20034;-69
2022/12/15 04:05:37;;;;;;;86.88;37.50;;;0.50;99.90;;;;;;5013211;28;20500;-69
2022/12/15 04:08:03;;;;;;;80.63;35.50;;;0.40;99.90;;;;;;5012688;28;20034;-69
2022/12/15 04:10:31;;;;;;;88.80;38.40;;;0.50;99.90;;;;;;5014739;28;20057;-68
2022/12/15 04:13:03;;;;;;;84.55;37.58;;;0.50;99.90;;;;;;4996864;28;20050;-69
2022/12/15 04:15:29;;;;;;;74.38;34.50;;;0.40;99.90;;;;;;4997270;28;20022;-69
2022/12/15 04:17:54;;;;;;;74.93;36.42;;;0.40;99.90;;;;;;5014825;28;20044;-69
2022/12/15 04:20:21;;;;;;;93.78;38.45;;;0.40;99.90;;;;;;4997155;28;20022;-69
2022/12/15 04:22:48;;;;;;;89.55;37.17;;;0.50;99.90;;;;;;4996649;28;20029;-69
2022/12/15 05:31:51;;;;;;;92.20;39.42;;;0.60;99.90;;;;;;5017314;28;20037;-66
2022/12/15 05:34:28;;;;;;;82.63;38.72;;;0.60;99.90;;;;;;4999754;28;20144;-65
2022/12/15 05:36:55;;;;;;;82.60;38.78;;;0.60;99.90;;;;;;5017360;28;20084;-65
2022/12/15 05:39:22;;;;;;;82.40;38.13;;;0.60;99.90;;;;;;5017142;28;20021;-65
2022/12/15 05:41:53;;;;;;;83.72;35.53;;;0.60;99.90;;;;;;4999785;28;20144;-66
2022/12/15 05:44:19;;;;;;;87.55;36.67;;;0.70;99.90;;;;;;5017216;28;20034;-65
2022/12/15 05:46:44;;;;;;;88.82;36.58;;;0.70;99.90;;;;;;4999392;28;20080;-67
2022/12/15 05:49:16;;;;;;;87.47;38.58;;;0.70;99.90;;;;;;5016971;28;20123;-67
2022/12/15 05:51:44;;;;;;;79.18;36.28;;;0.70;99.90;;;;;;5017057;28;20033;-67
2022/12/15 05:54:16;;;;;;;87.10;34.43;;;0.70;99.90;;;;;;5017142;28;20466;-67
2022/12/15 05:56:43;;;;;;;80.20;33.50;;;0.70;99.90;;;;;;4999043;28;20030;-68
2022/12/15 05:59:08;;;;;;;77.45;34.65;;;0.70;99.90;;;;;;5016681;28;20462;-67
2022/12/15 06:01:34;;;;;;;83.63;33.30;;;1.00;99.90;;;;;;5017042;28;20069;-67
2022/12/15 06:04:00;;;;;;;79.63;34.70;;;0.70;99.90;;;;;;5017030;28;20029;-67
2022/12/15 06:06:27;;;;;;;65.07;31.23;;;0.70;99.90;;;;;;4998403;28;20049;-69
2022/12/15 06:08:53;;;;;;;79.60;33.47;;;0.70;99.90;;;;;;5016545;28;20057;-66
2022/12/15 06:11:19;;;;;;;74.72;31.05;;;0.70;99.90;;;;;;5016240;28;20145;-66
2022/12/15 06:13:45;;;;;;;74.88;31.77;;;0.70;99.90;;;;;;4998938;28;20055;-67
2022/12/15 06:16:17;;;;;;;71.60;32.45;;;0.70;99.90;;;;;;5016447;28;20029;-67
2022/12/15 06:18:49;;;;;;;70.57;30.08;;;0.60;99.90;;;;;;5016418;28;20033;-67
2022/12/15 06:21:17;;;;;;;76.43;31.88;;;0.60;99.90;;;;;;4999106;28;20104;-67
2022/12/15 06:23:44;;;;;;;82.35;30.48;;;0.70;99.90;;;;;;5016795;28;20037;-67
2022/12/15 06:26:20;;;;;;;74.30;30.67;;;0.60;99.90;;;;;;5016310;28;20108;-67
2022/12/15 06:28:47;;;;;;;76.55;31.77;;;0.60;99.90;;;;;;5016345;28;20080;-67
2022/12/15 06:31:13;;;;;;;71.50;30.73;;;0.70;99.90;;;;;;5016121;28;20041;-66
2022/12/15 06:33:39;;;;;;;67.28;30.10;;;0.80;99.90;;;;;;5016173;28;20021;-67
2022/12/15 06:36:11;;;;;;;69.93;31.50;;;0.60;99.90;;;;;;4998512;28;20385;-67
2022/12/15 06:38:37;;;;;;;71.15;29.67;;;0.80;99.90;;;;;;5016397;28;20033;-66
2022/12/15 06:41:05;;;;;;;83.88;31.30;;;0.60;99.90;;;;;;5016261;28;20062;-66
2022/12/15 06:43:32;;;;;;;64.60;27.83;;;0.60;99.90;;;;;;5015994;28;20034;-67
2022/12/15 06:45:58;;;;;;;63.78;29.40;;;0.60;99.90;;;;;;4998420;28;20030;-66
2022/12/15 06:48:24;;;;;;;64.18;28.67;;;0.60;99.90;;;;;;4998483;28;20103;-66
2022/12/15 06:50:50;;;;;;;60.95;28.77;;;0.60;99.90;;;;;;5015756;28;20486;-66
2022/12/15 06:53:17;;;;;;;59.78;28.27;;;0.60;99.90;;;;;;5015487;28;20568;-66
2022/12/15 06:55:43;;;;;;;63.83;29.05;;;0.50;99.90;;;;;;5015680;28;20048;-66
2022/12/15 06:58:11;;;;;;;59.63;28.67;;;0.60;99.90;;;;;;4998571;28;20113;-66
2022/12/15 07:00:37;;;;;;;56.80;27.10;;;0.50;99.90;;;;;;4997900;28;20458;-66
2022/12/15 07:03:06;;;;;;;66.15;29.50;;;0.50;99.90;;;;;;5015952;28;20534;-66
2022/12/15 07:05:31;;;;;;;;;;;0.50;99.90;;;;;;4998449;28;20053;-66
2022/12/15 07:07:57;;;;;;;65.13;28.55;;;0.60;99.90;;;;;;4997901;28;19951;-66
2022/12/15 07:10:22;;;;;;;63.22;28.63;;;0.60;99.90;;;;;;5015834;28;20410;-66
2022/12/15 07:12:48;;;;;;;61.75;29.48;;;0.60;99.90;;;;;;5015398;28;20458;-66
2022/12/15 07:15:14;;;;;;;64.72;28.30;;;0.60;99.90;;;;;;5015545;28;20034;-66
2022/12/15 07:17:39;;;;;;;81.15;31.85;;;0.60;99.90;;;;;;5015636;28;20032;-67
2022/12/15 07:20:06;;;;;;;77.30;31.70;;;0.60;99.90;;;;;;4998701;28;20022;-69
2022/12/15 07:22:32;;;;;;;74.07;29.30;;;0.60;99.90;;;;;;5016684;28;20374;-66
2022/12/15 07:24:59;;;;;;;66.20;29.30;;;0.60;99.90;;;;;;5015925;28;20520;-66
2022/12/15 07:27:25;;;;;;;64.57;27.45;;;0.70;99.90;;;;;;5015530;28;20021;-66
2022/12/15 07:29:51;;;;;;;77.15;29.50;;;0.70;99.90;;;;;;5015259;28;20458;-66
2022/12/15 07:32:17;;;;;;;57.90;27.33;;;0.70;99.90;;;;;;4997732;28;20537;-67
2022/12/15 07:34:43;;;;;;;71.53;28.10;;;0.80;99.90;;;;;;4997417;28;20066;-66
2022/12/15 07:37:08;;;;;;;65.93;30.27;;;0.80;99.90;;;;;;5015118;28;20030;-66
2022/12/15 07:39:35;;;;;;;66.30;28.55;;;0.80;99.90;;;;;;4997712;28;20030;-66
2022/12/15 07:42:00;;;;;;;57.85;28.08;;;0.70;99.90;;;;;;4997549;28;20124;-66
2022/12/15 07:44:27;;;;;;;60.65;28.63;;;0.70;99.90;;;;;;5015016;28;20173;-66
2022/12/15 07:46:53;;;;;;;70.85;29.20;;;0.70;99.90;;;;;;5014900;28;20107;-66
2022/12/15 07:49:19;;;;;;;73.05;30.15;;;0.70;99.90;;;;;;4997369;28;20030;-66
2022/12/15 07:51:45;;;;;;;61.97;29.13;;;0.80;99.90;;;;;;5014425;28;20045;-66
2022/12/15 07:54:12;;;;;;;68.65;29.42;;;0.80;99.90;;;;;;4997210;28;20028;-66
2022/12/15 07:56:38;;;;;;;65.95;29.40;;;0.80;99.90;;;;;;5014969;28;20029;-66
2022/12/15 07:59:05;;;;;;;62.85;29.23;;;0.90;99.90;;;;;;4997585;28;20433;-66
2022/12/15 08:01:31;;;;;;;70.70;31.77;;;0.80;99.90;;;;;;4997415;28;20029;-66
2022/12/15 08:03:56;;;;;;;67.55;30.73;;;0.80;99.90;;;;;;5015346;28;20544;-67
2022/12/15 08:06:23;;;;;;;74.43;30.30;;;0.90;99.90;;;;;;4997108;28;20033;-66
2022/12/15 08:08:49;;;;;;;75.80;32.58;;;0.90;99.90;;;;;;4996729;28;20470;-66
2022/12/15 08:11:15;;;;;;;69.13;30.17;;;0.80;99.90;;;;;;5014417;28;20080;-66
2022/12/15 08:13:42;;;;;;;61.05;28.73;;;0.80;99.90;;;;;;5014509;28;20061;-66
2022/12/15 08:16:09;;;;;;;67.38;28.25;;;0.80;99.90;;;;;;4996780;28;20057;-66
2022/12/15 08:18:35;;;;;;;55.20;28.38;;;0.80;99.90;;;;;;5014554;28;20425;-66
2022/12/15 08:21:05;;;;;;;66.90;28.92;;;0.80;99.90;;;;;;5014643;28;20030;-66
2022/12/15 08:23:31;;;;;;;92.20;35.20;;;0.80;99.90;;;;;;5014362;28;20022;-66
2022/12/15 08:26:14;;;;;;;61.08;29.58;;;0.90;99.90;;;;;;5014365;28;20049;-66
2022/12/15 08:28:40;;;;;;;75.15;30.48;;;1.00;99.90;;;;;;4996867;28;20359;-66
2022/12/15 08:31:12;;;;;;;64.75;29.35;;;1.10;99.90;;;;;;5013672;28;20034;-65
2022/12/15 08:33:39;;;;;;;74.10;29.98;;;1.10;99.90;;;;;;5014416;28;20026;-65
2022/12/15 08:36:08;;;;;;;65.53;28.10;;;1.20;99.90;;;;;;5014724;28;20030;-66
2022/12/15 08:38:35;;;;;;;68.47;29.40;;;1.30;99.90;;;;;;4997565;28;20029;-67
2022/12/15 08:41:15;;;;;;;65.00;28.13;;;1.40;99.90;;;;;;5015179;28;20044;-66
2022/12/15 08:43:41;;;;;;;60.22;29.58;;;1.40;99.90;;;;;;5015171;28;20543;-66
2022/12/15 08:46:07;;;;;;;61.05;28.65;;;1.50;99.90;;;;;;5014331;28;20057;-65
2022/12/15 08:48:34;;;;;;;72.32;30.85;;;1.50;99.90;;;;;;5014082;28;20487;-65
2022/12/15 08:51:00;;;;;;;75.60;29.70;;;1.50;99.90;;;;;;5013941;28;20022;-66
2022/12/15 08:53:26;;;;;;;55.58;27.95;;;1.60;99.90;;;;;;4996330;28;20097;-66
2022/12/15 08:55:52;;;;;;;54.33;27.60;;;1.60;99.90;;;;;;4996254;28;20070;-65
2022/12/15 08:58:18;;;;;;;61.85;27.30;;;1.60;99.90;;;;;;5013899;28;20026;-65
2022/12/15 09:00:44;;;;;;;57.30;28.17;;;1.60;99.90;;;;;;5013866;28;20104;-66
2022/12/15 09:03:10;;;;;;;67.15;27.92;;;1.60;99.90;;;;;;4996208;28;20053;-65
2022/12/15 09:05:36;;;;;;;67.20;29.90;;;1.60;99.90;;;;;;4996321;28;20030;-66
2022/12/15 09:08:02;;;;;;;62.80;28.50;;;1.60;99.90;;;;;;4996435;28;20076;-66
2022/12/15 09:10:28;;;;;;;60.55;28.38;;;1.50;99.90;;;;;;5008358;28;20066;-66
2022/12/15 09:12:53;;;;;;;67.43;27.38;;;1.50;99.90;;;;;;5012519;28;20042;-66
2022/12/15 09:15:19;;;;;;;60.92;28.90;;;1.50;99.90;;;;;;5013646;28;20112;-66
2022/12/15 09:17:46;;;;;;;54.45;26.95;;;1.50;99.90;;;;;;5013735;28;20033;-66
2022/12/15 09:20:13;;;;;;;56.63;27.17;;;1.50;99.90;;;;;;5013897;28;20026;-66
2022/12/15 09:22:39;;;;;;;55.47;26.88;;;1.60;99.90;;;;;;5012408;28;20425;-66
2022/12/15 09:25:05;;;;;;;53.38;27.35;;;1.60;99.90;;;;;;5013695;28;20032;-66
2022/12/15 09:27:31;;;;;;;56.17;27.95;;;1.60;99.90;;;;;;5012537;28;20022;-66
2022/12/15 09:29:57;;;;;;;61.85;28.40;;;1.70;99.90;;;;;;5013785;28;20037;-66
2022/12/15 09:32:23;;;;;;;58.25;28.92;;;1.80;99.90;;;;;;5013667;28;20034;-66
2022/12/15 09:34:52;;;;;;;57.20;28.65;;;1.90;99.90;;;;;;5013762;28;20037;-66
2022/12/15 09:37:19;;;;;;;59.90;29.65;;;2.10;99.90;;;;;;5013839;28;20051;-66
2022/12/15 09:39:44;;;;;;;60.70;29.33;;;2.30;99.90;;;;;;5013545;28;20033;-66
2022/12/15 09:42:30;;;;;;;54.28;27.80;;;2.40;99.90;;;;;;5014603;28;20025;-66
2022/12/15 09:45:14;;;;;;;50.92;25.35;;;2.60;99.90;;;;;;5017468;28;20028;-66
2022/12/15 09:47:57;;;;;;;50.28;26.15;;;2.60;99.90;;;;;;5017413;28;20033;-66
2022/12/15 09:50:28;;;;;;;60.40;28.50;;;2.50;99.90;;;;;;5015783;28;20033;-66
2022/12/15 09:52:58;;;;;;;49.47;26.63;;;2.60;99.90;;;;;;5016985;28;20376;-66
2022/12/15 09:55:27;;;;;;;54.92;26.83;;;2.60;99.90;;;;;;5016054;28;20084;-67
2022/12/15 09:57:59;;;;;;;;;;;2.50;99.90;;;;;;5016064;28;20026;-67
2022/12/15 10:00:39;;;;;;;56.63;30.65;;;2.40;99.90;;;;;;5015726;28;19905;-66
2022/12/15 10:03:29;;;;;;;57.88;30.67;;;2.50;99.90;;;;;;5016897;28;20041;-67
2022/12/15 10:06:13;;;;;;;61.25;35.15;;;2.60;99.90;;;;;;5016721;28;20025;-68
2022/12/15 10:09:01;;;;;;;81.57;46.17;;;2.70;99.90;;;;;;5015596;28;20030;-68
2022/12/15 10:11:48;;;;;;;57.53;28.42;;;2.80;99.90;;;;;;4999114;28;20441;-68
2022/12/15 10:14:37;;;;;;;52.45;27.77;;;2.80;99.90;;;;;;4999153;28;20378;-70
2022/12/15 10:17:21;;;;;;;53.50;28.42;;;2.90;99.90;;;;;;5016884;28;20029;-69
2022/12/15 10:19:56;;;;;;;54.67;28.88;;;2.90;99.90;;;;;;5016923;28;20036;-70
2022/12/15 10:22:29;;;;;;;50.42;26.30;;;2.90;99.90;;;;;;4998965;28;20029;-69
2022/12/15 10:24:55;;;;;;;65.70;31.63;;;2.90;99.90;;;;;;4999041;28;20389;-70
2022/12/15 10:27:58;;;;;;;56.63;32.72;;;2.70;99.90;;;;;;5016375;28;20103;-71
2022/12/15 10:30:24;;;;;;;58.38;29.52;;;2.70;99.90;;;;;;5016806;28;20034;-72
2022/12/15 10:32:59;;;;;;;71.68;48.65;;;2.70;99.90;;;;;;5016103;28;20489;-71
2022/12/15 10:35:36;;;;;;;51.85;27.83;;;2.60;99.90;;;;;;5016518;28;20022;-71
2022/12/15 10:38:15;;;;;;;54.75;26.95;;;2.60;99.90;;;;;;4998754;28;20085;-71
2022/12/15 10:40:44;;;;;;;54.53;27.77;;;2.50;99.90;;;;;;5016025;28;20463;-71
2022/12/15 10:43:24;;;;;;;58.47;28.58;;;2.50;99.90;;;;;;5016104;28;20030;-72
2022/12/15 10:46:04;;;;;;;50.92;25.73;;;2.60;99.90;;;;;;5016077;28;20528;-71
2022/12/15 10:48:30;;;;;;;57.35;27.92;;;2.60;99.90;;;;;;5016460;28;20105;-71
2022/12/15 10:51:20;;;;;;;58.45;28.42;;;2.60;99.90;;;;;;5016129;28;20028;-72
2022/12/15 10:53:50;;;;;;;54.55;27.13;;;2.60;99.90;;;;;;5016106;28;20085;-72
2022/12/15 10:56:20;;;;;;;53.55;28.70;;;2.60;99.90;;;;;;4998903;28;20080;-72
2022/12/15 10:58:55;;;;;;;56.85;29.90;;;2.60;99.90;;;;;;4998492;28;20046;-72
2022/12/15 11:01:30;;;;;;;56.22;27.90;;;2.60;99.90;;;;;;4998978;28;20414;-72
2022/12/15 11:03:56;;;;;;;56.22;29.23;;;2.60;99.90;;;;;;5015738;28;20021;-72
2022/12/15 11:06:31;;;;;;;69.45;38.22;;;2.60;99.90;;;;;;4998501;28;20026;-72
2022/12/15 11:09:21;;;;;;;80.97;41.45;;;2.60;99.90;;;;;;4998629;28;20045;-73
2022/12/15 11:15:01;;;;;;;67.90;32.65;;;2.50;99.90;;;;;;5015895;28;20052;-73
2022/12/15 11:17:39;;;;;;;69.32;31.65;;;2.40;99.90;;;;;;5002320;28;20126;-73
2022/12/15 11:20:20;;;;;;;69.13;32.45;;;2.30;99.90;;;;;;5015950;28;20095;-72
2022/12/15 11:22:55;;;;;;;69.53;33.65;;;2.20;99.90;;;;;;5013849;28;20033;-73
2022/12/15 11:25:26;;;;;;;72.18;33.78;;;2.10;99.90;;;;;;5015669;28;20030;-73
2022/12/15 11:27:55;;;;;;;72.97;33.90;;;2.10;99.90;;;;;;5015528;28;20026;-72
2022/12/15 11:30:25;;;;;;;72.18;33.72;;;2.20;99.90;;;;;;5014501;28;20036;-72
2022/12/15 11:32:54;;;;;;;69.03;34.20;;;2.10;99.90;;;;;;5014023;28;20030;-73
2022/12/15 11:35:28;;;;;;;73.88;34.53;;;2.20;99.90;;;;;;5013949;28;20029;-72
2022/12/15 11:38:32;;;;;;;76.18;34.80;;;2.10;99.90;;;;;;5015094;28;20030;-72
2022/12/15 11:41:09;;;;;;;75.85;35.78;;;2.00;99.90;;;;;;4983704;28;20120;-72
2022/12/15 11:44:08;;;;;;;78.45;37.05;;;2.00;99.90;;;;;;5013994;28;20026;-72
2022/12/15 11:46:45;;;;;;;76.70;36.00;;;1.90;99.90;;;;;;5014975;28;20033;-72
2022/12/15 11:49:19;;;;;;;75.78;37.13;;;1.90;99.90;;;;;;5015175;28;20352;-72
2022/12/15 11:51:59;;;;;;;82.57;36.55;;;1.80;99.90;;;;;;5014942;28;20037;-72
2022/12/15 11:54:31;;;;;;;75.78;34.80;;;1.80;99.90;;;;;;5013678;28;20041;-72
2022/12/15 11:57:30;;;;;;;84.18;37.20;;;1.80;99.90;;;;;;5017024;28;20026;-72
2022/12/15 12:00:05;;;;;;;80.20;36.80;;;1.80;99.90;;;;;;5016500;28;20028;-72
2022/12/15 12:02:55;;;;;;;83.13;37.85;;;1.80;99.90;;;;;;5016761;28;20057;-72
2022/12/15 12:05:39;;;;;;;89.47;39.30;;;1.80;99.90;;;;;;5014485;28;20494;-72
2022/12/15 12:08:37;;;;;;;88.80;37.78;;;1.80;99.90;;;;;;5013999;28;20433;-72
2022/12/15 12:11:06;;;;;;;82.93;37.72;;;1.80;99.90;;;;;;4981994;28;20057;-72
2022/12/15 12:13:59;;;;;;;88.07;38.05;;;1.70;99.90;;;;;;5015099;28;20478;-71
2022/12/15 12:16:35;;;;;;;93.90;39.63;;;1.80;99.90;;;;;;5015002;28;20197;-72
2022/12/15 12:19:13;;;;;;;91.35;39.97;;;1.80;99.90;;;;;;5014991;28;20030;-72
2022/12/15 12:21:48;;;;;;;84.68;37.67;;;1.70;99.90;;;;;;5013485;28;20037;-71
2022/12/15 12:24:44;;;;;;;86.43;39.95;;;1.80;99.90;;;;;;5015746;28;20026;-72
2022/12/15 12:27:22;;;;;;;92.32;39.47;;;1.70;99.90;;;;;;5019028;28;20114;-72
2022/12/15 12:30:10;;;;;;;95.47;40.87;;;1.70;99.90;;;;;;5018409;28;20061;-72
2022/12/15 12:32:39;;;;;;;;;;;1.70;99.90;;;;;;5016630;28;20776;-72
2022/12/15 12:35:56;;;;;;;99.03;41.08;;;1.70;99.90;;;;;;5014674;28;19909;-72
2022/12/15 12:38:30;;;;;;;93.75;40.10;;;1.60;99.90;;;;;;4981314;28;20034;-71
2022/12/15 12:41:01;;;;;;;97.40;42.30;;;1.60;99.90;;;;;;5013277;28;20389;-71
2022/12/15 12:43:31;;;;;;;97.13;40.70;;;1.70;99.90;;;;;;5014185;28;20030;-71
2022/12/15 12:46:38;;;;;;;100.70;42.13;;;1.70;99.90;;;;;;5013062;28;20037;-72
2022/12/15 12:49:26;;;;;;;92.63;40.78;;;1.70;99.90;;;;;;5014552;28;20109;-72
2022/12/15 12:51:55;;;;;;;99.20;41.35;;;1.70;99.90;;;;;;5014232;28;20032;-72
2022/12/15 12:54:33;;;;;;;91.00;39.15;;;1.70;99.90;;;;;;5014418;28;20034;-72
2022/12/15 12:57:00;;;;;;;94.00;40.10;;;1.60;99.90;;;;;;5012506;28;20061;-72
2022/12/15 12:59:35;;;;;;;95.45;40.70;;;1.60;99.90;;;;;;5012883;28;20080;-71
2022/12/15 13:02:19;;;;;;;92.53;40.03;;;1.60;99.90;;;;;;5014312;28;20359;-71
2022/12/15 13:04:59;;;;;;;99.45;42.35;;;1.60;99.90;;;;;;5013129;28;20022;-71
2022/12/15 13:07:41;;;;;;;92.78;40.63;;;1.60;99.90;;;;;;5014711;28;20451;-71
2022/12/15 13:10:07;;;;;;;100.97;40.92;;;1.60;99.90;;;;;;5013550;28;20073;-71
2022/12/15 13:12:45;;;;;;;103.90;41.95;;;1.60;99.90;;;;;;5015878;28;20080;-71
2022/12/15 13:15:19;;;;;;;99.03;41.03;;;1.70;99.90;;;;;;5019122;28;20036;-72
2022/12/15 13:17:51;;;;;;;98.38;42.83;;;1.70;99.90;;;;;;5022387;28;20477;-72
2022/12/15 13:20:21;;;;;;;98.50;41.97;;;1.70;99.90;;;;;;5022048;28;20120;-72
2022/12/15 13:22:47;;;;;;;95.70;42.65;;;1.70;99.90;;;;;;5022591;28;20062;-71
2022/12/15 13:25:36;;;;;;;103.20;44.67;;;1.70;99.90;;;;;;5023220;28;20044;-71
2022/12/15 13:28:21;;;;;;;97.93;42.05;;;1.70;99.90;;;;;;5010289;28;20037;-71
2022/12/15 13:31:18;;;;;;;98.03;40.75;;;1.70;99.90;;;;;;5020155;28;20025;-70
2022/12/15 13:33:49;;;;;;;91.80;38.35;;;1.70;99.90;;;;;;5008584;28;20033;-71
2022/12/15 13:36:40;;;;;;;100.10;41.72;;;1.70;99.90;;;;;;5007205;28;20092;-72
2022/12/15 13:39:11;;;;;;;96.30;42.55;;;1.70;99.90;;;;;;5007491;28;20037;-72
2022/12/15 13:41:40;;;;;;;93.07;38.83;;;1.60;99.90;;;;;;5006051;28;20030;-71
2022/12/15 13:44:31;;;;;;;97.78;39.95;;;1.50;99.90;;;;;;5006600;28;20036;-73
2022/12/15 13:47:09;;;;;;;92.43;41.80;;;1.50;99.90;;;;;;5005419;28;20038;-71
2022/12/15 13:49:47;;;;;;;89.00;38.90;;;1.50;99.90;;;;;;5008264;28;20072;-71
2022/12/15 13:52:26;;;;;;;98.83;42.60;;;1.50;99.90;;;;;;5013368;28;20324;-71
2022/12/15 13:54:57;;;;;;;85.57;39.50;;;1.50;99.90;;;;;;5017551;28;20084;-70
2022/12/15 13:57:24;;;;;;;94.65;40.67;;;1.50;99.90;;;;;;5017584;28;20053;-70
2022/12/15 14:00:03;;;;;;;95.35;41.42;;;1.40;99.90;;;;;;5017933;28;20032;-71
2022/12/15 14:02:30;;;;;;;94.32;40.90;;;1.40;99.90;;;;;;5019738;28;20470;-70
2022/12/15 14:05:08;;;;;;;90.28;40.22;;;1.40;99.90;;;;;;5018891;28;20085;-70
2022/12/15 14:07:34;;;;;;;96.00;40.50;;;1.40;99.90;;;;;;5020552;28;20026;-72
2022/12/15 14:10:02;;;;;;;99.50;42.22;;;1.40;99.90;;;;;;5020229;28;20052;-70
2022/12/15 14:12:28;;;;;;;102.25;42.67;;;1.40;99.90;;;;;;5001285;28;20038;-70
2022/12/15 14:14:54;;;;;;;97.07;43.50;;;1.40;99.90;;;;;;5019933;28;20033;-71
2022/12/15 14:17:21;;;;;;;97.38;41.13;;;1.40;99.90;;;;;;5002132;28;20462;-70
2022/12/15 14:19:48;;;;;;;105.90;44.17;;;1.40;99.90;;;;;;5019266;28;20036;-71
2022/12/15 14:22:28;;;;;;;98.63;41.13;;;1.40;99.90;;;;;;5019110;28;20083;-71
2022/12/15 14:25:15;;;;;;;103.28;43.33;;;1.30;99.90;;;;;;5018890;28;20021;-71
2022/12/15 14:27:40;;;;;;;103.75;43.55;;;1.30;99.90;;;;;;5016058;28;20026;-70
2022/12/15 14:30:13;;;;;;;103.97;45.50;;;1.30;99.90;;;;;;4998947;28;20022;-71
2022/12/15 14:32:40;;;;;;;106.05;45.22;;;1.30;99.90;;;;;;5016439;28;20480;-70
2022/12/15 14:35:13;;;;;;;118.28;45.90;;;1.30;99.90;;;;;;5016204;28;20455;-71
2022/12/15 14:37:39;;;;;;;101.72;44.35;;;1.30;99.90;;;;;;5016584;28;20026;-71
2022/12/15 14:40:11;;;;;;;110.00;46.13;;;1.30;99.90;;;;;;5016582;28;20026;-71
2022/12/15 14:42:37;;;;;;;111.13;46.83;;;1.30;99.90;;;;;;4999672;28;20443;-71
2022/12/15 14:45:03;;;;;;;117.20;46.42;;;1.30;99.90;;;;;;5015142;28;20026;-70
2022/12/15 14:47:32;;;;;;;110.13;46.55;;;1.30;99.90;;;;;;5017071;28;20109;-71
2022/12/15 14:49:59;;;;;;;;;;;1.30;99.90;;;;;;5016889;28;20040;-70
2022/12/15 14:52:37;;;;;;;110.80;45.80;;;1.30;99.90;;;;;;5016503;28;19917;-71
2022/12/15 14:55:36;;;;;;;130.27;49.47;;;1.30;99.90;;;;;;4999165;28;20080;-71
2022/12/15 14:58:21;;;;;;;117.57;47.13;;;1.30;99.90;;;;;;5009583;28;20037;-70
2022/12/15 15:00:49;;;;;;;125.18;48.20;;;1.20;99.90;;;;;;5015692;28;20022;-70
2022/12/15 15:03:17;;;;;;;126.63;51.28;;;1.20;99.90;;;;;;5014602;28;20026;-70
2022/12/15 15:06:03;;;;;;;93.95;37.75;;;1.20;99.90;;;;;;4998982;28;20030;-71
2022/12/15 15:08:33;;;;;;;127.50;50.53;;;1.20;99.90;;;;;;5016747;28;20022;-71
2022/12/15 15:11:29;;;;;;;134.07;51.28;;;1.20;99.90;;;;;;4996570;28;20049;-70
2022/12/15 15:13:59;;;;;;;124.22;49.15;;;1.20;99.90;;;;;;4972957;28;20101;-69
2022/12/15 15:16:25;;;;;;;132.90;51.05;;;1.20;99.90;;;;;;4994998;28;20122;-70
2022/12/15 15:18:54;;;;;;;138.18;52.95;;;1.20;99.90;;;;;;4996816;28;20082;-70
2022/12/15 15:21:26;;;;;;;134.95;53.38;;;1.20;99.90;;;;;;4979091;28;20387;-71
2022/12/15 15:24:09;;;;;;;133.63;52.35;;;1.30;99.90;;;;;;4996452;28;20033;-71